sensor_id;sensor_type;location;lat;lon;timestamp;temperature;humidity
17891;DHT22;9071;48.220;14.480;2022-08-05T00:03:21;19.60;99.90
17891;DHT22;9071;48.220;14.480;2022-08-05T00:08:24;19.60;99.90
17891;DHT22;9071;48.220;14.480;2022-08-05T00:13:26;19.60;99.90
17891;DHT22;9071;48.220;14.480;2022-08-05T00:18:29;19.40;99.90
17891;DHT22;9071;48.220;14.480;2022-08-05T00:23:32;19.30;99.90
17891;DHT22;9071;48.220;14.480;2022-08-05T00:28:34;19.30;99.90
17891;DHT22;9071;48.220;14.480;2022-08-05T00:33:38;19.20;99.90
17891;DHT22;9071;48.220;14.480;2022-08-05T00:38:40;19.10;99.90
17891;DHT22;9071;48.220;14.480;2022-08-05T00:43:43;19.00;99.90
17891;DHT22;9071;48.220;14.480;2022-08-05T00:48:48;18.90;99.90
17891;DHT22;9071;48.220;14.480;2022-08-05T00:53:50;18.90;99.90
17891;DHT22;9071;48.220;14.480;2022-08-05T00:58:52;19.00;99.90
17891;DHT22;9071;48.220;14.480;2022-08-05T01:03:55;19.00;99.90
17891;DHT22;9071;48.220;14.480;2022-08-05T01:08:57;18.90;99.90
17891;DHT22;9071;48.220;14.480;2022-08-05T01:14:04;18.80;99.90
17891;DHT22;9071;48.220;14.480;2022-08-05T01:19:18;18.70;99.90
17891;DHT22;9071;48.220;14.480;2022-08-05T01:30:01;18.50;99.90
17891;DHT22;9071;48.220;14.480;2022-08-05T01:35:07;18.40;99.90
17891;DHT22;9071;48.220;14.480;2022-08-05T01:40:11;18.40;99.90
17891;DHT22;9071;48.220;14.480;2022-08-05T01:45:15;18.30;99.90
17891;DHT22;9071;48.220;14.480;2022-08-05T01:50:22;18.30;99.90
17891;DHT22;9071;48.220;14.480;2022-08-05T01:55:28;18.30;99.90
17891;DHT22;9071;48.220;14.480;2022-08-05T02:00:35;18.30;99.90
17891;DHT22;9071;48.220;14.480;2022-08-05T02:05:40;18.10;99.90
17891;DHT22;9071;48.220;14.480;2022-08-05T02:10:51;18.10;99.90
17891;DHT22;9071;48.220;14.480;2022-08-05T02:16:01;18.10;99.90
17891;DHT22;9071;48.220;14.480;2022-08-05T02:21:08;18.10;99.90
17891;DHT22;9071;48.220;14.480;2022-08-05T02:26:12;18.10;99.90
17891;DHT22;9071;48.220;14.480;2022-08-05T02:31:20;18.00;99.90
17891;DHT22;9071;48.220;14.480;2022-08-05T02:36:25;17.90;99.90
17891;DHT22;9071;48.220;14.480;2022-08-05T02:41:27;17.90;99.90
17891;DHT22;9071;48.220;14.480;2022-08-05T02:46:32;17.70;99.90
17891;DHT22;9071;48.220;14.480;2022-08-05T02:51:36;17.70;99.90
17891;DHT22;9071;48.220;14.480;2022-08-05T02:56:39;17.70;99.90
17891;DHT22;9071;48.220;14.480;2022-08-05T03:01:44;17.60;99.90
17891;DHT22;9071;48.220;14.480;2022-08-05T03:06:50;17.50;99.90
17891;DHT22;9071;48.220;14.480;2022-08-05T03:11:52;17.50;99.90
17891;DHT22;9071;48.220;14.480;2022-08-05T03:16:56;17.50;99.90
17891;DHT22;9071;48.220;14.480;2022-08-05T03:21:58;17.50;99.90
17891;DHT22;9071;48.220;14.480;2022-08-05T03:27:00;17.50;99.90
17891;DHT22;9071;48.220;14.480;2022-08-05T03:32:05;17.50;99.90
17891;DHT22;9071;48.220;14.480;2022-08-05T03:37:07;17.60;99.90
17891;DHT22;9071;48.220;14.480;2022-08-05T03:42:09;17.60;99.90
17891;DHT22;9071;48.220;14.480;2022-08-05T03:47:13;17.60;99.90
17891;DHT22;9071;48.220;14.480;2022-08-05T03:52:20;17.60;99.90
17891;DHT22;9071;48.220;14.480;2022-08-05T03:57:26;17.60;99.90
17891;DHT22;9071;48.220;14.480;2022-08-05T04:02:31;17.50;99.90
17891;DHT22;9071;48.220;14.480;2022-08-05T04:07:36;17.50;99.90
17891;DHT22;9071;48.220;14.480;2022-08-05T04:12:39;17.40;99.90
17891;DHT22;9071;48.220;14.480;2022-08-05T04:17:42;17.50;99.90
17891;DHT22;9071;48.220;14.480;2022-08-05T04:22:45;17.50;99.90
17891;DHT22;9071;48.220;14.480;2022-08-05T04:27:47;17.70;99.90
17891;DHT22;9071;48.220;14.480;2022-08-05T04:32:51;17.70;99.90
17891;DHT22;9071;48.220;14.480;2022-08-05T04:37:53;17.80;99.90
17891;DHT22;9071;48.220;14.480;2022-08-05T04:42:55;18.10;99.90
17891;DHT22;9071;48.220;14.480;2022-08-05T04:48:04;18.30;99.90
17891;DHT22;9071;48.220;14.480;2022-08-05T04:53:07;18.60;99.90
17891;DHT22;9071;48.220;14.480;2022-08-05T04:58:12;18.70;99.90
17891;DHT22;9071;48.220;14.480;2022-08-05T05:03:15;18.90;99.90
17891;DHT22;9071;48.220;14.480;2022-08-05T05:08:17;19.00;99.90
17891;DHT22;9071;48.220;14.480;2022-08-05T05:13:20;19.00;99.90
17891;DHT22;9071;48.220;14.480;2022-08-05T05:18:24;19.10;99.90
17891;DHT22;9071;48.220;14.480;2022-08-05T05:23:26;19.30;99.90
17891;DHT22;9071;48.220;14.480;2022-08-05T05:28:28;19.40;99.90
17891;DHT22;9071;48.220;14.480;2022-08-05T05:33:31;19.70;99.90
17891;DHT22;9071;48.220;14.480;2022-08-05T05:38:33;21.30;99.90
17891;DHT22;9071;48.220;14.480;2022-08-05T05:43:35;24.60;99.90
17891;DHT22;9071;48.220;14.480;2022-08-05T05:48:39;27.40;99.90
17891;DHT22;9071;48.220;14.480;2022-08-05T05:53:41;29.10;99.90
17891;DHT22;9071;48.220;14.480;2022-08-05T05:58:44;30.50;99.90
17891;DHT22;9071;48.220;14.480;2022-08-05T06:03:48;31.50;99.90
17891;DHT22;9071;48.220;14.480;2022-08-05T06:08:50;31.50;99.90
17891;DHT22;9071;48.220;14.480;2022-08-05T06:13:52;32.10;99.90
17891;DHT22;9071;48.220;14.480;2022-08-05T06:18:56;32.00;99.90
17891;DHT22;9071;48.220;14.480;2022-08-05T06:23:58;32.70;99.90
17891;DHT22;9071;48.220;14.480;2022-08-05T06:29:00;33.50;99.90
17891;DHT22;9071;48.220;14.480;2022-08-05T06:34:04;34.00;99.90
17891;DHT22;9071;48.220;14.480;2022-08-05T06:39:06;34.50;99.90
17891;DHT22;9071;48.220;14.480;2022-08-05T06:44:08;33.40;99.90
17891;DHT22;9071;48.220;14.480;2022-08-05T06:49:11;33.10;99.90
17891;DHT22;9071;48.220;14.480;2022-08-05T06:54:13;34.10;99.90
17891;DHT22;9071;48.220;14.480;2022-08-05T06:59:15;34.90;99.90
17891;DHT22;9071;48.220;14.480;2022-08-05T07:04:19;35.70;99.90
17891;DHT22;9071;48.220;14.480;2022-08-05T07:09:21;36.10;99.90
17891;DHT22;9071;48.220;14.480;2022-08-05T07:14:23;35.80;99.90
17891;DHT22;9071;48.220;14.480;2022-08-05T07:19:44;35.80;99.90
17891;DHT22;9071;48.220;14.480;2022-08-05T07:24:46;36.60;99.90
17891;DHT22;9071;48.220;14.480;2022-08-05T07:29:48;35.60;99.90
17891;DHT22;9071;48.220;14.480;2022-08-05T07:34:51;35.90;99.90
17891;DHT22;9071;48.220;14.480;2022-08-05T07:39:53;35.90;99.90
17891;DHT22;9071;48.220;14.480;2022-08-05T07:44:55;36.70;99.90
17891;DHT22;9071;48.220;14.480;2022-08-05T07:49:59;36.70;99.90
17891;DHT22;9071;48.220;14.480;2022-08-05T07:55:01;35.40;99.90
17891;DHT22;9071;48.220;14.480;2022-08-05T08:00:04;36.70;99.90
17891;DHT22;9071;48.220;14.480;2022-08-05T08:05:08;36.30;99.90
17891;DHT22;9071;48.220;14.480;2022-08-05T08:10:10;36.60;99.90
17891;DHT22;9071;48.220;14.480;2022-08-05T08:15:12;36.70;99.90
17891;DHT22;9071;48.220;14.480;2022-08-05T08:20:16;36.50;99.90
17891;DHT22;9071;48.220;14.480;2022-08-05T08:25:18;34.10;99.90
17891;DHT22;9071;48.220;14.480;2022-08-05T08:30:21;32.30;99.90
17891;DHT22;9071;48.220;14.480;2022-08-05T08:35:24;31.00;99.90
17891;DHT22;9071;48.220;14.480;2022-08-05T08:40:27;30.50;99.90
17891;DHT22;9071;48.220;14.480;2022-08-05T08:45:29;30.20;99.90
17891;DHT22;9071;48.220;14.480;2022-08-05T08:50:35;29.80;99.90
17891;DHT22;9071;48.220;14.480;2022-08-05T08:55:38;29.90;99.90
17891;DHT22;9071;48.220;14.480;2022-08-05T09:00:41;29.80;99.90
17891;DHT22;9071;48.220;14.480;2022-08-05T09:05:46;29.60;99.90
17891;DHT22;9071;48.220;14.480;2022-08-05T09:10:48;29.70;99.90
17891;DHT22;9071;48.220;14.480;2022-08-05T09:15:51;30.30;99.90
17891;DHT22;9071;48.220;14.480;2022-08-05T09:20:55;30.50;99.90
17891;DHT22;9071;48.220;14.480;2022-08-05T09:26:06;30.10;99.90
17891;DHT22;9071;48.220;14.480;2022-08-05T09:31:10;30.20;99.90
17891;DHT22;9071;48.220;14.480;2022-08-05T09:36:14;30.40;99.90
17891;DHT22;9071;48.220;14.480;2022-08-05T09:41:17;30.70;99.90
17891;DHT22;9071;48.220;14.480;2022-08-05T09:46:26;30.90;99.90
17891;DHT22;9071;48.220;14.480;2022-08-05T09:51:35;30.80;99.90
17891;DHT22;9071;48.220;14.480;2022-08-05T09:56:38;30.90;99.90
17891;DHT22;9071;48.220;14.480;2022-08-05T10:01:46;31.10;99.90
17891;DHT22;9071;48.220;14.480;2022-08-05T10:06:54;31.30;99.90
17891;DHT22;9071;48.220;14.480;2022-08-05T10:12:07;31.50;99.90
17891;DHT22;9071;48.220;14.480;2022-08-05T10:17:12;31.80;99.90
17891;DHT22;9071;48.220;14.480;2022-08-05T10:22:16;32.00;99.90
17891;DHT22;9071;48.220;14.480;2022-08-05T10:27:18;32.20;99.90
17891;DHT22;9071;48.220;14.480;2022-08-05T10:32:21;32.40;99.90
17891;DHT22;9071;48.220;14.480;2022-08-05T10:37:25;32.70;99.90
17891;DHT22;9071;48.220;14.480;2022-08-05T10:42:32;32.70;99.90
17891;DHT22;9071;48.220;14.480;2022-08-05T10:47:36;32.60;99.90
17891;DHT22;9071;48.220;14.480;2022-08-05T10:52:46;32.70;99.90
17891;DHT22;9071;48.220;14.480;2022-08-05T10:58:06;32.90;99.90
17891;DHT22;9071;48.220;14.480;2022-08-05T11:03:11;33.20;99.90
17891;DHT22;9071;48.220;14.480;2022-08-05T11:08:15;33.40;99.90
17891;DHT22;9071;48.220;14.480;2022-08-05T11:13:39;33.10;99.90
17891;DHT22;9071;48.220;14.480;2022-08-05T11:18:43;33.40;99.90
17891;DHT22;9071;48.220;14.480;2022-08-05T11:23:52;33.70;99.90
17891;DHT22;9071;48.220;14.480;2022-08-05T11:28:55;33.80;99.90
17891;DHT22;9071;48.220;14.480;2022-08-05T11:34:02;34.00;99.90
17891;DHT22;9071;48.220;14.480;2022-08-05T11:39:07;34.10;99.90
17891;DHT22;9071;48.220;14.480;2022-08-05T11:44:10;34.10;99.90
17891;DHT22;9071;48.220;14.480;2022-08-05T11:49:16;34.20;99.90
17891;DHT22;9071;48.220;14.480;2022-08-05T11:54:24;34.40;99.90
17891;DHT22;9071;48.220;14.480;2022-08-05T11:59:28;34.20;99.90
17891;DHT22;9071;48.220;14.480;2022-08-05T12:04:38;34.10;99.90
17891;DHT22;9071;48.220;14.480;2022-08-05T12:09:47;34.30;99.90
17891;DHT22;9071;48.220;14.480;2022-08-05T12:14:50;34.40;99.90
17891;DHT22;9071;48.220;14.480;2022-08-05T12:19:53;34.40;99.90
17891;DHT22;9071;48.220;14.480;2022-08-05T12:24:58;34.40;99.90
17891;DHT22;9071;48.220;14.480;2022-08-05T12:30:01;34.50;99.90
17891;DHT22;9071;48.220;14.480;2022-08-05T12:35:05;34.50;99.90
17891;DHT22;9071;48.220;14.480;2022-08-05T12:40:11;34.80;99.90
17891;DHT22;9071;48.220;14.480;2022-08-05T12:45:13;34.90;99.90
17891;DHT22;9071;48.220;14.480;2022-08-05T12:50:16;34.90;99.90
17891;DHT22;9071;48.220;14.480;2022-08-05T12:55:21;34.70;99.90
17891;DHT22;9071;48.220;14.480;2022-08-05T13:00:25;35.00;99.90
17891;DHT22;9071;48.220;14.480;2022-08-05T13:05:28;35.10;99.90
17891;DHT22;9071;48.220;14.480;2022-08-05T13:10:31;35.00;99.90
17891;DHT22;9071;48.220;14.480;2022-08-05T13:15:33;35.20;99.90
17891;DHT22;9071;48.220;14.480;2022-08-05T13:20:36;35.00;99.90
17891;DHT22;9071;48.220;14.480;2022-08-05T13:25:39;34.70;99.90
17891;DHT22;9071;48.220;14.480;2022-08-05T13:30:41;34.90;99.90
17891;DHT22;9071;48.220;14.480;2022-08-05T13:35:44;34.70;99.90
17891;DHT22;9071;48.220;14.480;2022-08-05T13:40:47;34.70;99.90
17891;DHT22;9071;48.220;14.480;2022-08-05T13:45:49;34.80;99.90
17891;DHT22;9071;48.220;14.480;2022-08-05T13:50:51;34.90;99.90
17891;DHT22;9071;48.220;14.480;2022-08-05T13:55:55;35.00;99.90
17891;DHT22;9071;48.220;14.480;2022-08-05T14:00:57;34.70;99.90
17891;DHT22;9071;48.220;14.480;2022-08-05T14:05:59;34.50;99.90
17891;DHT22;9071;48.220;14.480;2022-08-05T14:11:03;34.60;99.90
17891;DHT22;9071;48.220;14.480;2022-08-05T14:16:05;34.60;99.90
17891;DHT22;9071;48.220;14.480;2022-08-05T14:21:07;34.50;99.90
17891;DHT22;9071;48.220;14.480;2022-08-05T14:26:11;34.50;99.90
17891;DHT22;9071;48.220;14.480;2022-08-05T14:31:13;34.10;99.90
17891;DHT22;9071;48.220;14.480;2022-08-05T14:36:15;34.00;99.90
17891;DHT22;9071;48.220;14.480;2022-08-05T14:41:19;33.90;99.90
17891;DHT22;9071;48.220;14.480;2022-08-05T14:46:21;33.70;99.90
17891;DHT22;9071;48.220;14.480;2022-08-05T14:51:23;33.70;99.90
17891;DHT22;9071;48.220;14.480;2022-08-05T14:56:27;33.80;99.90
17891;DHT22;9071;48.220;14.480;2022-08-05T15:01:29;34.00;99.90
17891;DHT22;9071;48.220;14.480;2022-08-05T15:06:31;34.20;99.90
17891;DHT22;9071;48.220;14.480;2022-08-05T15:11:35;34.20;99.90
17891;DHT22;9071;48.220;14.480;2022-08-05T15:16:37;34.00;99.90
17891;DHT22;9071;48.220;14.480;2022-08-05T15:21:39;33.80;99.90
17891;DHT22;9071;48.220;14.480;2022-08-05T15:26:42;33.90;99.90
17891;DHT22;9071;48.220;14.480;2022-08-05T15:31:45;34.10;99.90
17891;DHT22;9071;48.220;14.480;2022-08-05T15:36:47;34.10;99.90
17891;DHT22;9071;48.220;14.480;2022-08-05T15:41:51;34.10;99.90
17891;DHT22;9071;48.220;14.480;2022-08-05T15:46:53;34.00;99.90
17891;DHT22;9071;48.220;14.480;2022-08-05T15:51:55;33.70;99.90
17891;DHT22;9071;48.220;14.480;2022-08-05T15:56:58;33.40;99.90
17891;DHT22;9071;48.220;14.480;2022-08-05T16:02:00;33.10;99.90
17891;DHT22;9071;48.220;14.480;2022-08-05T16:07:03;33.00;99.90
17891;DHT22;9071;48.220;14.480;2022-08-05T16:12:07;32.80;99.90
17891;DHT22;9071;48.220;14.480;2022-08-05T16:17:10;32.70;99.90
17891;DHT22;9071;48.220;14.480;2022-08-05T16:22:12;32.80;99.90
17891;DHT22;9071;48.220;14.480;2022-08-05T16:27:16;32.80;99.90
17891;DHT22;9071;48.220;14.480;2022-08-05T16:32:18;32.60;99.90
17891;DHT22;9071;48.220;14.480;2022-08-05T16:37:20;32.60;99.90
17891;DHT22;9071;48.220;14.480;2022-08-05T16:42:24;32.50;99.90
17891;DHT22;9071;48.220;14.480;2022-08-05T16:47:26;32.50;99.90
17891;DHT22;9071;48.220;14.480;2022-08-05T16:52:28;32.40;99.90
17891;DHT22;9071;48.220;14.480;2022-08-05T16:57:31;32.30;99.90
17891;DHT22;9071;48.220;14.480;2022-08-05T17:02:33;32.20;99.90
17891;DHT22;9071;48.220;14.480;2022-08-05T17:07:35;32.00;99.90
17891;DHT22;9071;48.220;14.480;2022-08-05T17:12:39;31.80;99.90
17891;DHT22;9071;48.220;14.480;2022-08-05T17:17:41;31.60;99.90
17891;DHT22;9071;48.220;14.480;2022-08-05T17:22:44;31.50;99.90
17891;DHT22;9071;48.220;14.480;2022-08-05T17:27:47;31.30;99.90
17891;DHT22;9071;48.220;14.480;2022-08-05T17:32:49;31.00;99.90
17891;DHT22;9071;48.220;14.480;2022-08-05T17:37:51;30.80;99.90
17891;DHT22;9071;48.220;14.480;2022-08-05T17:42:55;30.60;99.90
17891;DHT22;9071;48.220;14.480;2022-08-05T17:47:57;30.40;99.90
17891;DHT22;9071;48.220;14.480;2022-08-05T17:53:00;30.20;99.90
17891;DHT22;9071;48.220;14.480;2022-08-05T17:58:04;30.00;99.90
17891;DHT22;9071;48.220;14.480;2022-08-05T18:03:07;29.80;99.90
17891;DHT22;9071;48.220;14.480;2022-08-05T18:08:09;29.60;99.90
17891;DHT22;9071;48.220;14.480;2022-08-05T18:13:12;29.50;99.90
17891;DHT22;9071;48.220;14.480;2022-08-05T18:18:14;29.40;99.90
17891;DHT22;9071;48.220;14.480;2022-08-05T18:23:16;29.20;99.90
17891;DHT22;9071;48.220;14.480;2022-08-05T18:28:20;29.00;99.90
17891;DHT22;9071;48.220;14.480;2022-08-05T18:33:22;28.90;99.90
17891;DHT22;9071;48.220;14.480;2022-08-05T18:38:24;28.70;99.90
17891;DHT22;9071;48.220;14.480;2022-08-05T18:43:27;28.70;99.90
17891;DHT22;9071;48.220;14.480;2022-08-05T18:48:30;28.60;99.90
17891;DHT22;9071;48.220;14.480;2022-08-05T18:53:32;28.50;99.90
17891;DHT22;9071;48.220;14.480;2022-08-05T18:58:35;28.30;99.90
17891;DHT22;9071;48.220;14.480;2022-08-05T19:03:37;28.20;99.90
17891;DHT22;9071;48.220;14.480;2022-08-05T19:08:39;28.30;99.90
17891;DHT22;9071;48.220;14.480;2022-08-05T19:13:43;28.50;99.90
17891;DHT22;9071;48.220;14.480;2022-08-05T19:18:45;28.40;99.90
17891;DHT22;9071;48.220;14.480;2022-08-05T19:23:47;28.30;99.90
17891;DHT22;9071;48.220;14.480;2022-08-05T19:28:51;28.20;99.90
17891;DHT22;9071;48.220;14.480;2022-08-05T19:33:53;28.00;99.90
17891;DHT22;9071;48.220;14.480;2022-08-05T19:38:55;27.90;99.90
17891;DHT22;9071;48.220;14.480;2022-08-05T19:43:59;27.90;99.90
17891;DHT22;9071;48.220;14.480;2022-08-05T19:49:06;27.80;99.90
17891;DHT22;9071;48.220;14.480;2022-08-05T19:54:08;27.60;99.90
17891;DHT22;9071;48.220;14.480;2022-08-05T19:59:11;27.60;99.90
17891;DHT22;9071;48.220;14.480;2022-08-05T20:04:14;27.50;99.90
17891;DHT22;9071;48.220;14.480;2022-08-05T20:09:16;27.50;99.90
17891;DHT22;9071;48.220;14.480;2022-08-05T20:14:20;27.40;99.90
17891;DHT22;9071;48.220;14.480;2022-08-05T20:19:22;27.30;99.90
17891;DHT22;9071;48.220;14.480;2022-08-05T20:24:24;27.10;99.90
17891;DHT22;9071;48.220;14.480;2022-08-05T20:29:29;27.00;99.90
17891;DHT22;9071;48.220;14.480;2022-08-05T20:34:31;26.80;99.90
17891;DHT22;9071;48.220;14.480;2022-08-05T20:39:33;26.50;99.90
17891;DHT22;9071;48.220;14.480;2022-08-05T20:44:37;26.30;99.90
17891;DHT22;9071;48.220;14.480;2022-08-05T20:49:39;26.10;99.90
17891;DHT22;9071;48.220;14.480;2022-08-05T20:54:41;25.90;99.90
17891;DHT22;9071;48.220;14.480;2022-08-05T20:59:44;25.70;99.90
17891;DHT22;9071;48.220;14.480;2022-08-05T21:04:46;25.60;99.90
17891;DHT22;9071;48.220;14.480;2022-08-05T21:09:48;25.40;99.90
17891;DHT22;9071;48.220;14.480;2022-08-05T21:14:52;25.30;99.90
17891;DHT22;9071;48.220;14.480;2022-08-05T21:19:54;25.20;99.90
17891;DHT22;9071;48.220;14.480;2022-08-05T21:24:56;25.20;99.90
17891;DHT22;9071;48.220;14.480;2022-08-05T21:30:00;25.10;99.90
17891;DHT22;9071;48.220;14.480;2022-08-05T21:35:02;25.20;99.90
17891;DHT22;9071;48.220;14.480;2022-08-05T21:40:05;25.10;99.90
17891;DHT22;9071;48.220;14.480;2022-08-05T21:45:09;25.00;99.90
17891;DHT22;9071;48.220;14.480;2022-08-05T21:50:11;24.90;99.90
17891;DHT22;9071;48.220;14.480;2022-08-05T21:55:14;24.70;99.90
17891;DHT22;9071;48.220;14.480;2022-08-05T22:00:18;24.40;99.90
17891;DHT22;9071;48.220;14.480;2022-08-05T22:05:20;24.20;99.90
17891;DHT22;9071;48.220;14.480;2022-08-05T22:10:22;24.10;99.90
17891;DHT22;9071;48.220;14.480;2022-08-05T22:15:26;24.10;99.90
17891;DHT22;9071;48.220;14.480;2022-08-05T22:20:28;24.10;99.90
17891;DHT22;9071;48.220;14.480;2022-08-05T22:25:30;24.10;99.90
17891;DHT22;9071;48.220;14.480;2022-08-05T22:30:51;24.10;99.90
17891;DHT22;9071;48.220;14.480;2022-08-05T22:35:54;24.10;99.90
17891;DHT22;9071;48.220;14.480;2022-08-05T22:40:56;24.20;99.90
17891;DHT22;9071;48.220;14.480;2022-08-05T22:45:59;24.30;99.90
17891;DHT22;9071;48.220;14.480;2022-08-05T22:51:01;24.30;99.90
17891;DHT22;9071;48.220;14.480;2022-08-05T22:56:04;24.30;99.90
17891;DHT22;9071;48.220;14.480;2022-08-05T23:01:08;24.30;99.90
17891;DHT22;9071;48.220;14.480;2022-08-05T23:06:10;24.20;99.90
17891;DHT22;9071;48.220;14.480;2022-08-05T23:11:12;24.30;99.90
17891;DHT22;9071;48.220;14.480;2022-08-05T23:16:16;24.30;99.90
17891;DHT22;9071;48.220;14.480;2022-08-05T23:21:18;24.30;99.90
17891;DHT22;9071;48.220;14.480;2022-08-05T23:26:20;24.50;99.90
17891;DHT22;9071;48.220;14.480;2022-08-05T23:31:23;24.80;99.90
17891;DHT22;9071;48.220;14.480;2022-08-05T23:36:25;25.00;99.90
17891;DHT22;9071;48.220;14.480;2022-08-05T23:41:27;24.90;99.90
17891;DHT22;9071;48.220;14.480;2022-08-05T23:46:31;24.70;99.90
17891;DHT22;9071;48.220;14.480;2022-08-05T23:51:35;24.70;99.90
17891;DHT22;9071;48.220;14.480;2022-08-05T23:56:54;24.60;99.90
